sensor_id;sensor_type;location;lat;lon;timestamp;pressure;altitude;pressure_sealevel;temperature;humidity
26775;BME280;14362;51.902;7.626;2023-01-19T00:03:28;99390.59;;;1.30;100.00
26775;BME280;14362;51.902;7.626;2023-01-19T00:07:30;99383.94;;;1.36;100.00
26775;BME280;14362;51.902;7.626;2023-01-19T00:11:31;99395.19;;;1.34;100.00
26775;BME280;14362;51.902;7.626;2023-01-19T00:15:32;99406.69;;;1.36;100.00
26775;BME280;14362;51.902;7.626;2023-01-19T00:19:35;99421.53;;;1.35;100.00
26775;BME280;14362;51.902;7.626;2023-01-19T00:23:37;99420.94;;;1.38;100.00
26775;BME280;14362;51.902;7.626;2023-01-19T00:27:38;99424.25;;;1.35;100.00
26775;BME280;14362;51.902;7.626;2023-01-19T00:31:40;99435.25;;;1.35;100.00
26775;BME280;14362;51.902;7.626;2023-01-19T00:35:43;99438.13;;;1.44;100.00
26775;BME280;14362;51.902;7.626;2023-01-19T00:39:44;99439.69;;;1.50;100.00
26775;BME280;14362;51.902;7.626;2023-01-19T00:43:45;99444.28;;;1.54;100.00
26775;BME280;14362;51.902;7.626;2023-01-19T00:47:48;99442.31;;;1.60;100.00
26775;BME280;14362;51.902;7.626;2023-01-19T00:51:55;99432.88;;;1.66;100.00
26775;BME280;14362;51.902;7.626;2023-01-19T00:55:56;99436.34;;;1.71;100.00
26775;BME280;14362;51.902;7.626;2023-01-19T00:59:58;99440.72;;;1.72;100.00
26775;BME280;14362;51.902;7.626;2023-01-19T01:03:59;99435.22;;;1.72;100.00
26775;BME280;14362;51.902;7.626;2023-01-19T01:08:02;99441.84;;;1.71;100.00
26775;BME280;14362;51.902;7.626;2023-01-19T01:12:04;99443.41;;;1.77;100.00
26775;BME280;14362;51.902;7.626;2023-01-19T01:16:06;99437.84;;;1.82;100.00
26775;BME280;14362;51.902;7.626;2023-01-19T01:20:10;99443.03;;;1.84;100.00
26775;BME280;14362;51.902;7.626;2023-01-19T01:24:16;99444.06;;;1.88;100.00
26775;BME280;14362;51.902;7.626;2023-01-19T01:28:19;99441.84;;;1.90;100.00
26775;BME280;14362;51.902;7.626;2023-01-19T01:32:21;99446.81;;;1.88;100.00
26775;BME280;14362;51.902;7.626;2023-01-19T01:36:22;99439.88;;;1.90;100.00
26775;BME280;14362;51.902;7.626;2023-01-19T01:40:27;99442.16;;;1.88;100.00
26775;BME280;14362;51.902;7.626;2023-01-19T01:44:46;99437.47;;;1.89;100.00
26775;BME280;14362;51.902;7.626;2023-01-19T01:48:54;99433.06;;;1.88;100.00
26775;BME280;14362;51.902;7.626;2023-01-19T01:53:02;99431.75;;;1.85;100.00
26775;BME280;14362;51.902;7.626;2023-01-19T01:57:07;99438.03;;;1.86;100.00
26775;BME280;14362;51.902;7.626;2023-01-19T02:01:11;99430.84;;;1.90;100.00
26775;BME280;14362;51.902;7.626;2023-01-19T02:05:32;99432.69;;;1.94;100.00
26775;BME280;14362;51.902;7.626;2023-01-19T02:09:35;99425.47;;;1.98;100.00
26775;BME280;14362;51.902;7.626;2023-01-19T02:13:56;99428.53;;;1.97;100.00
26775;BME280;14362;51.902;7.626;2023-01-19T02:17:57;99424.56;;;2.02;100.00
26775;BME280;14362;51.902;7.626;2023-01-19T02:22:04;99428.56;;;2.10;100.00
26775;BME280;14362;51.902;7.626;2023-01-19T02:26:11;99433.47;;;2.13;100.00
26775;BME280;14362;51.902;7.626;2023-01-19T02:30:14;99433.97;;;2.15;100.00
26775;BME280;14362;51.902;7.626;2023-01-19T02:34:18;99437.84;;;2.14;100.00
26775;BME280;14362;51.902;7.626;2023-01-19T02:38:20;99428.19;;;2.16;100.00
26775;BME280;14362;51.902;7.626;2023-01-19T02:42:26;99423.81;;;2.15;100.00
26775;BME280;14362;51.902;7.626;2023-01-19T02:46:29;99430.25;;;2.24;100.00
26775;BME280;14362;51.902;7.626;2023-01-19T02:50:39;99430.56;;;2.23;100.00
26775;BME280;14362;51.902;7.626;2023-01-19T02:54:53;99425.34;;;2.21;100.00
26775;BME280;14362;51.902;7.626;2023-01-19T02:59:05;99417.63;;;2.23;100.00
26775;BME280;14362;51.902;7.626;2023-01-19T03:03:19;99424.22;;;2.22;100.00
26775;BME280;14362;51.902;7.626;2023-01-19T03:07:29;99427.81;;;2.23;100.00
26775;BME280;14362;51.902;7.626;2023-01-19T03:11:37;99425.56;;;2.25;100.00
26775;BME280;14362;51.902;7.626;2023-01-19T03:15:44;99418.13;;;2.25;100.00
26775;BME280;14362;51.902;7.626;2023-01-19T03:19:49;99411.50;;;2.26;100.00
26775;BME280;14362;51.902;7.626;2023-01-19T03:23:54;99417.34;;;2.25;100.00
26775;BME280;14362;51.902;7.626;2023-01-19T03:27:58;99411.84;;;2.25;100.00
26775;BME280;14362;51.902;7.626;2023-01-19T03:32:03;99408.75;;;2.26;100.00
26775;BME280;14362;51.902;7.626;2023-01-19T03:36:10;99413.31;;;2.17;100.00
26775;BME280;14362;51.902;7.626;2023-01-19T03:40:14;99411.41;;;2.18;100.00
26775;BME280;14362;51.902;7.626;2023-01-19T03:44:15;99411.72;;;2.16;100.00
26775;BME280;14362;51.902;7.626;2023-01-19T03:48:19;99417.22;;;2.16;100.00
26775;BME280;14362;51.902;7.626;2023-01-19T03:52:27;99414.94;;;2.18;100.00
26775;BME280;14362;51.902;7.626;2023-01-19T03:56:29;99418.91;;;2.12;100.00
26775;BME280;14362;51.902;7.626;2023-01-19T04:00:31;99417.50;;;2.15;100.00
26775;BME280;14362;51.902;7.626;2023-01-19T04:04:33;99427.38;;;2.16;100.00
26775;BME280;14362;51.902;7.626;2023-01-19T04:08:35;99417.34;;;2.25;100.00
26775;BME280;14362;51.902;7.626;2023-01-19T04:12:37;99418.03;;;2.30;100.00
26775;BME280;14362;51.902;7.626;2023-01-19T04:16:39;99422.31;;;2.23;100.00
26775;BME280;14362;51.902;7.626;2023-01-19T04:20:41;99419.25;;;2.24;100.00
26775;BME280;14362;51.902;7.626;2023-01-19T04:24:43;99407.66;;;2.27;100.00
26775;BME280;14362;51.902;7.626;2023-01-19T04:28:44;99412.03;;;2.28;100.00
26775;BME280;14362;51.902;7.626;2023-01-19T04:32:46;99400.72;;;2.30;100.00
26775;BME280;14362;51.902;7.626;2023-01-19T04:36:49;99397.97;;;2.30;100.00
26775;BME280;14362;51.902;7.626;2023-01-19T04:40:52;99399.19;;;2.24;100.00
26775;BME280;14362;51.902;7.626;2023-01-19T04:44:53;99404.28;;;2.17;100.00
26775;BME280;14362;51.902;7.626;2023-01-19T04:48:55;99399.31;;;2.00;100.00
26775;BME280;14362;51.902;7.626;2023-01-19T04:52:58;99391.78;;;1.93;100.00
26775;BME280;14362;51.902;7.626;2023-01-19T04:56:59;99399.38;;;1.82;100.00
26775;BME280;14362;51.902;7.626;2023-01-19T05:01:01;99404.66;;;1.79;100.00
26775;BME280;14362;51.902;7.626;2023-01-19T05:05:02;99410.00;;;1.70;100.00
26775;BME280;14362;51.902;7.626;2023-01-19T05:09:05;99411.50;;;1.63;100.00
26775;BME280;14362;51.902;7.626;2023-01-19T05:13:08;99409.66;;;1.58;100.00
26775;BME280;14362;51.902;7.626;2023-01-19T05:17:09;99418.25;;;1.52;100.00
26775;BME280;14362;51.902;7.626;2023-01-19T05:21:11;99418.91;;;1.44;100.00
26775;BME280;14362;51.902;7.626;2023-01-19T05:25:14;99413.22;;;1.40;100.00
26775;BME280;14362;51.902;7.626;2023-01-19T05:29:16;99411.38;;;1.36;100.00
26775;BME280;14362;51.902;7.626;2023-01-19T05:33:17;99418.25;;;1.33;100.00
26775;BME280;14362;51.902;7.626;2023-01-19T05:37:19;99418.78;;;1.35;100.00
26775;BME280;14362;51.902;7.626;2023-01-19T05:41:21;99411.59;;;1.21;100.00
26775;BME280;14362;51.902;7.626;2023-01-19T05:45:23;99415.97;;;1.22;100.00
26775;BME280;14362;51.902;7.626;2023-01-19T05:49:24;99416.03;;;1.17;100.00
26775;BME280;14362;51.902;7.626;2023-01-19T05:53:26;99423.16;;;1.18;100.00
26775;BME280;14362;51.902;7.626;2023-01-19T05:57:29;99421.22;;;1.18;100.00
26775;BME280;14362;51.902;7.626;2023-01-19T06:01:30;99427.53;;;1.19;100.00
26775;BME280;14362;51.902;7.626;2023-01-19T06:05:33;99432.19;;;1.18;100.00
26775;BME280;14362;51.902;7.626;2023-01-19T06:09:37;99433.25;;;1.22;100.00
26775;BME280;14362;51.902;7.626;2023-01-19T06:13:40;99416.84;;;1.17;100.00
26775;BME280;14362;51.902;7.626;2023-01-19T06:17:41;99423.38;;;1.21;100.00
26775;BME280;14362;51.902;7.626;2023-01-19T06:21:43;99433.59;;;1.16;100.00
26775;BME280;14362;51.902;7.626;2023-01-19T06:25:48;99438.78;;;1.17;100.00
26775;BME280;14362;51.902;7.626;2023-01-19T06:29:51;99451.69;;;1.17;100.00
26775;BME280;14362;51.902;7.626;2023-01-19T06:33:53;99445.38;;;1.16;100.00
26775;BME280;14362;51.902;7.626;2023-01-19T06:37:54;99458.56;;;1.14;100.00
26775;BME280;14362;51.902;7.626;2023-01-19T06:41:56;99454.13;;;1.18;100.00
26775;BME280;14362;51.902;7.626;2023-01-19T06:45:58;99465.16;;;1.13;100.00
26775;BME280;14362;51.902;7.626;2023-01-19T06:50:00;99464.91;;;1.15;100.00
26775;BME280;14362;51.902;7.626;2023-01-19T06:54:02;99465.16;;;1.13;100.00
26775;BME280;14362;51.902;7.626;2023-01-19T06:58:04;99468.44;;;1.15;100.00
26775;BME280;14362;51.902;7.626;2023-01-19T07:02:08;99478.63;;;1.15;100.00
26775;BME280;14362;51.902;7.626;2023-01-19T07:06:10;99484.91;;;1.15;100.00
26775;BME280;14362;51.902;7.626;2023-01-19T07:10:12;99482.78;;;1.12;100.00
26775;BME280;14362;51.902;7.626;2023-01-19T07:14:14;99476.97;;;1.14;100.00
26775;BME280;14362;51.902;7.626;2023-01-19T07:18:17;99487.13;;;1.13;100.00
26775;BME280;14362;51.902;7.626;2023-01-19T07:22:19;99497.59;;;1.11;100.00
26775;BME280;14362;51.902;7.626;2023-01-19T07:26:21;99501.44;;;1.10;100.00
26775;BME280;14362;51.902;7.626;2023-01-19T07:30:24;99497.34;;;1.08;100.00
26775;BME280;14362;51.902;7.626;2023-01-19T07:34:27;99503.41;;;1.05;100.00
26775;BME280;14362;51.902;7.626;2023-01-19T07:38:28;99515.16;;;1.10;100.00
26775;BME280;14362;51.902;7.626;2023-01-19T07:42:30;99522.56;;;1.10;100.00
26775;BME280;14362;51.902;7.626;2023-01-19T07:46:31;99536.22;;;1.15;100.00
26775;BME280;14362;51.902;7.626;2023-01-19T07:50:34;99534.06;;;1.12;100.00
26775;BME280;14362;51.902;7.626;2023-01-19T07:54:35;99544.47;;;1.15;100.00
26775;BME280;14362;51.902;7.626;2023-01-19T07:58:37;99555.38;;;1.20;100.00
26775;BME280;14362;51.902;7.626;2023-01-19T08:02:38;99548.53;;;1.17;100.00
26775;BME280;14362;51.902;7.626;2023-01-19T08:06:43;99562.56;;;1.16;100.00
26775;BME280;14362;51.902;7.626;2023-01-19T08:10:47;99580.38;;;1.18;100.00
26775;BME280;14362;51.902;7.626;2023-01-19T08:14:49;99582.00;;;1.19;100.00
26775;BME280;14362;51.902;7.626;2023-01-19T08:18:51;99589.34;;;1.24;100.00
26775;BME280;14362;51.902;7.626;2023-01-19T08:22:54;99596.47;;;1.25;100.00
26775;BME280;14362;51.902;7.626;2023-01-19T08:27:00;99603.78;;;1.34;100.00
26775;BME280;14362;51.902;7.626;2023-01-19T08:31:01;99607.94;;;1.32;100.00
26775;BME280;14362;51.902;7.626;2023-01-19T08:35:03;99620.94;;;1.45;100.00
26775;BME280;14362;51.902;7.626;2023-01-19T08:39:06;99629.19;;;1.45;100.00
26775;BME280;14362;51.902;7.626;2023-01-19T08:43:09;99634.31;;;1.51;100.00
26775;BME280;14362;51.902;7.626;2023-01-19T08:47:11;99651.09;;;1.50;100.00
26775;BME280;14362;51.902;7.626;2023-01-19T08:51:13;99647.47;;;1.54;100.00
26775;BME280;14362;51.902;7.626;2023-01-19T08:55:16;99652.38;;;1.57;100.00
26775;BME280;14362;51.902;7.626;2023-01-19T08:59:18;99672.34;;;1.63;100.00
26775;BME280;14362;51.902;7.626;2023-01-19T09:03:20;99668.22;;;1.65;100.00
26775;BME280;14362;51.902;7.626;2023-01-19T09:07:22;99684.41;;;1.67;100.00
26775;BME280;14362;51.902;7.626;2023-01-19T09:11:25;99686.88;;;1.68;100.00
26775;BME280;14362;51.902;7.626;2023-01-19T09:15:27;99695.28;;;1.77;100.00
26775;BME280;14362;51.902;7.626;2023-01-19T09:19:28;99704.72;;;1.66;100.00
26775;BME280;14362;51.902;7.626;2023-01-19T09:23:30;99708.84;;;1.68;100.00
26775;BME280;14362;51.902;7.626;2023-01-19T09:27:33;99725.59;;;1.67;100.00
26775;BME280;14362;51.902;7.626;2023-01-19T09:31:34;99721.75;;;1.68;100.00
26775;BME280;14362;51.902;7.626;2023-01-19T09:35:36;99718.47;;;1.66;100.00
26775;BME280;14362;51.902;7.626;2023-01-19T09:39:38;99733.94;;;1.57;100.00
26775;BME280;14362;51.902;7.626;2023-01-19T09:43:43;99743.00;;;1.57;100.00
26775;BME280;14362;51.902;7.626;2023-01-19T09:47:47;99749.03;;;1.59;100.00
26775;BME280;14362;51.902;7.626;2023-01-19T09:51:50;99747.03;;;1.65;100.00
26775;BME280;14362;51.902;7.626;2023-01-19T09:55:51;99753.53;;;1.74;100.00
26775;BME280;14362;51.902;7.626;2023-01-19T09:59:55;99765.28;;;1.79;100.00
26775;BME280;14362;51.902;7.626;2023-01-19T10:04:04;99757.81;;;1.85;100.00
26775;BME280;14362;51.902;7.626;2023-01-19T10:08:17;99765.16;;;1.89;100.00
26775;BME280;14362;51.902;7.626;2023-01-19T10:12:31;99776.06;;;1.99;100.00
26775;BME280;14362;51.902;7.626;2023-01-19T10:16:43;99771.09;;;2.01;100.00
26775;BME280;14362;51.902;7.626;2023-01-19T10:20:51;99780.94;;;2.07;100.00
26775;BME280;14362;51.902;7.626;2023-01-19T10:24:54;99785.53;;;2.11;100.00
26775;BME280;14362;51.902;7.626;2023-01-19T10:29:01;99790.69;;;2.18;100.00
26775;BME280;14362;51.902;7.626;2023-01-19T10:33:04;99797.81;;;2.19;100.00
26775;BME280;14362;51.902;7.626;2023-01-19T10:37:15;99807.41;;;2.21;100.00
26775;BME280;14362;51.902;7.626;2023-01-19T10:41:19;99804.91;;;2.25;100.00
26775;BME280;14362;51.902;7.626;2023-01-19T10:45:27;99806.19;;;2.32;100.00
26775;BME280;14362;51.902;7.626;2023-01-19T10:49:36;99807.84;;;2.33;100.00
26775;BME280;14362;51.902;7.626;2023-01-19T10:53:39;99820.69;;;2.38;100.00
26775;BME280;14362;51.902;7.626;2023-01-19T10:57:42;99826.41;;;2.41;100.00
26775;BME280;14362;51.902;7.626;2023-01-19T11:02:01;99825.78;;;2.49;100.00
26775;BME280;14362;51.902;7.626;2023-01-19T11:06:19;99831.66;;;2.61;100.00
26775;BME280;14362;51.902;7.626;2023-01-19T11:10:23;99826.84;;;2.72;100.00
26775;BME280;14362;51.902;7.626;2023-01-19T11:14:25;99818.59;;;2.72;100.00
26775;BME280;14362;51.902;7.626;2023-01-19T11:18:31;99823.16;;;2.81;100.00
26775;BME280;14362;51.902;7.626;2023-01-19T11:22:35;99825.53;;;2.88;100.00
26775;BME280;14362;51.902;7.626;2023-01-19T11:26:39;99825.16;;;2.94;100.00
26775;BME280;14362;51.902;7.626;2023-01-19T11:30:52;99824.50;;;3.02;100.00
26775;BME280;14362;51.902;7.626;2023-01-19T11:34:54;99822.56;;;2.84;100.00
26775;BME280;14362;51.902;7.626;2023-01-19T11:38:58;99816.47;;;2.87;100.00
26775;BME280;14362;51.902;7.626;2023-01-19T11:43:00;99827.25;;;3.02;100.00
26775;BME280;14362;51.902;7.626;2023-01-19T11:47:03;99828.69;;;3.00;100.00
26775;BME280;14362;51.902;7.626;2023-01-19T11:51:12;99829.50;;;3.00;100.00
26775;BME280;14362;51.902;7.626;2023-01-19T11:55:20;99821.91;;;2.92;100.00
26775;BME280;14362;51.902;7.626;2023-01-19T11:59:23;99824.72;;;2.87;100.00
26775;BME280;14362;51.902;7.626;2023-01-19T12:03:27;99829.41;;;2.87;100.00
26775;BME280;14362;51.902;7.626;2023-01-19T12:07:33;99842.50;;;2.95;100.00
26775;BME280;14362;51.902;7.626;2023-01-19T12:11:40;99839.69;;;3.00;100.00
26775;BME280;14362;51.902;7.626;2023-01-19T12:15:43;99829.84;;;3.12;100.00
26775;BME280;14362;51.902;7.626;2023-01-19T12:19:50;99833.28;;;3.22;100.00
26775;BME280;14362;51.902;7.626;2023-01-19T12:24:04;99837.97;;;3.22;100.00
26775;BME280;14362;51.902;7.626;2023-01-19T12:28:13;99842.38;;;3.23;100.00
26775;BME280;14362;51.902;7.626;2023-01-19T12:32:15;99851.94;;;3.25;100.00
26775;BME280;14362;51.902;7.626;2023-01-19T12:36:36;99857.91;;;3.14;100.00
26775;BME280;14362;51.902;7.626;2023-01-19T12:40:39;99856.13;;;3.23;100.00
26775;BME280;14362;51.902;7.626;2023-01-19T12:44:43;99861.91;;;3.21;100.00
26775;BME280;14362;51.902;7.626;2023-01-19T12:48:46;99853.00;;;3.29;100.00
26775;BME280;14362;51.902;7.626;2023-01-19T12:52:48;99867.50;;;3.35;100.00
26775;BME280;14362;51.902;7.626;2023-01-19T12:56:57;99862.09;;;3.30;100.00
26775;BME280;14362;51.902;7.626;2023-01-19T13:01:15;99864.09;;;3.24;100.00
26775;BME280;14362;51.902;7.626;2023-01-19T13:09:40;99869.91;;;3.23;100.00
26775;BME280;14362;51.902;7.626;2023-01-19T13:13:43;99872.88;;;3.26;100.00
26775;BME280;14362;51.902;7.626;2023-01-19T13:17:48;99872.66;;;3.23;100.00
26775;BME280;14362;51.902;7.626;2023-01-19T13:21:51;99873.09;;;3.11;100.00
26775;BME280;14362;51.902;7.626;2023-01-19T13:26:04;99874.72;;;3.12;100.00
26775;BME280;14362;51.902;7.626;2023-01-19T13:30:11;99880.31;;;3.07;100.00
26775;BME280;14362;51.902;7.626;2023-01-19T13:34:19;99883.88;;;3.08;100.00
26775;BME280;14362;51.902;7.626;2023-01-19T13:38:23;99878.38;;;3.08;100.00
26775;BME280;14362;51.902;7.626;2023-01-19T13:42:28;99880.09;;;3.22;100.00
26775;BME280;14362;51.902;7.626;2023-01-19T13:46:31;99893.19;;;3.30;100.00
26775;BME280;14362;51.902;7.626;2023-01-19T13:50:36;99888.88;;;3.43;100.00
26775;BME280;14362;51.902;7.626;2023-01-19T13:54:46;99893.94;;;3.54;100.00
26775;BME280;14362;51.902;7.626;2023-01-19T13:59:06;99907.41;;;3.37;100.00
26775;BME280;14362;51.902;7.626;2023-01-19T14:03:15;99899.81;;;3.29;100.00
26775;BME280;14362;51.902;7.626;2023-01-19T14:07:22;99912.91;;;3.19;100.00
26775;BME280;14362;51.902;7.626;2023-01-19T14:11:25;99912.22;;;3.08;100.00
26775;BME280;14362;51.902;7.626;2023-01-19T14:15:27;99913.69;;;3.01;100.00
26775;BME280;14362;51.902;7.626;2023-01-19T14:19:29;99916.66;;;3.04;100.00
26775;BME280;14362;51.902;7.626;2023-01-19T14:23:41;99923.06;;;3.00;100.00
26775;BME280;14362;51.902;7.626;2023-01-19T14:27:43;99924.66;;;3.06;100.00
26775;BME280;14362;51.902;7.626;2023-01-19T14:31:46;99932.16;;;3.01;100.00
26775;BME280;14362;51.902;7.626;2023-01-19T14:35:48;99944.50;;;3.03;100.00
26775;BME280;14362;51.902;7.626;2023-01-19T14:39:54;99945.03;;;3.05;100.00
26775;BME280;14362;51.902;7.626;2023-01-19T14:43:57;99942.34;;;3.00;100.00
26775;BME280;14362;51.902;7.626;2023-01-19T14:48:01;99947.47;;;3.06;100.00
26775;BME280;14362;51.902;7.626;2023-01-19T14:52:06;99947.56;;;3.02;100.00
26775;BME280;14362;51.902;7.626;2023-01-19T14:56:09;99949.53;;;2.96;100.00
26775;BME280;14362;51.902;7.626;2023-01-19T15:00:14;99953.47;;;2.90;100.00
26775;BME280;14362;51.902;7.626;2023-01-19T15:04:16;99966.72;;;2.88;100.00
26775;BME280;14362;51.902;7.626;2023-01-19T15:08:19;99976.31;;;2.91;100.00
26775;BME280;14362;51.902;7.626;2023-01-19T15:12:25;99972.22;;;2.88;100.00
26775;BME280;14362;51.902;7.626;2023-01-19T15:16:28;99976.31;;;2.91;100.00
26775;BME280;14362;51.902;7.626;2023-01-19T15:20:30;99983.97;;;2.94;100.00
26775;BME280;14362;51.902;7.626;2023-01-19T15:24:31;99975.50;;;2.90;100.00
26775;BME280;14362;51.902;7.626;2023-01-19T15:28:34;99989.25;;;2.90;100.00
26775;BME280;14362;51.902;7.626;2023-01-19T15:32:35;99987.97;;;2.83;100.00
26775;BME280;14362;51.902;7.626;2023-01-19T15:36:42;99995.63;;;2.86;100.00
26775;BME280;14362;51.902;7.626;2023-01-19T15:40:45;99999.81;;;2.78;100.00
26775;BME280;14362;51.902;7.626;2023-01-19T15:44:48;99997.44;;;2.72;100.00
26775;BME280;14362;51.902;7.626;2023-01-19T15:48:50;100005.16;;;2.70;100.00
26775;BME280;14362;51.902;7.626;2023-01-19T15:52:52;100003.50;;;2.69;100.00
26775;BME280;14362;51.902;7.626;2023-01-19T15:56:53;100005.97;;;2.70;100.00
26775;BME280;14362;51.902;7.626;2023-01-19T16:00:57;100004.69;;;2.63;100.00
26775;BME280;14362;51.902;7.626;2023-01-19T16:04:58;100020.34;;;2.62;100.00
26775;BME280;14362;51.902;7.626;2023-01-19T16:09:00;100020.66;;;2.61;100.00
26775;BME280;14362;51.902;7.626;2023-01-19T16:13:03;100016.25;;;2.60;100.00
26775;BME280;14362;51.902;7.626;2023-01-19T16:17:05;100017.38;;;2.59;100.00
26775;BME280;14362;51.902;7.626;2023-01-19T16:21:07;100030.88;;;2.55;100.00
26775;BME280;14362;51.902;7.626;2023-01-19T16:25:09;100033.69;;;2.50;100.00
26775;BME280;14362;51.902;7.626;2023-01-19T16:29:11;100037.00;;;2.47;100.00
26775;BME280;14362;51.902;7.626;2023-01-19T16:33:14;100044.47;;;2.42;100.00
26775;BME280;14362;51.902;7.626;2023-01-19T16:37:15;100051.13;;;2.36;100.00
26775;BME280;14362;51.902;7.626;2023-01-19T16:41:17;100046.22;;;2.28;100.00
26775;BME280;14362;51.902;7.626;2023-01-19T16:45:18;100046.03;;;2.19;100.00
26775;BME280;14362;51.902;7.626;2023-01-19T16:49:22;100041.38;;;2.15;100.00
26775;BME280;14362;51.902;7.626;2023-01-19T16:53:24;100048.84;;;2.09;100.00
26775;BME280;14362;51.902;7.626;2023-01-19T16:57:25;100062.63;;;2.04;100.00
26775;BME280;14362;51.902;7.626;2023-01-19T17:01:27;100052.50;;;2.00;100.00
26775;BME280;14362;51.902;7.626;2023-01-19T17:05:30;100061.31;;;1.97;100.00
26775;BME280;14362;51.902;7.626;2023-01-19T17:09:32;100066.00;;;1.97;100.00
26775;BME280;14362;51.902;7.626;2023-01-19T17:13:34;100071.75;;;1.95;100.00
26775;BME280;14362;51.902;7.626;2023-01-19T17:17:35;100070.41;;;1.93;100.00
26775;BME280;14362;51.902;7.626;2023-01-19T17:21:38;100080.06;;;1.85;100.00
26775;BME280;14362;51.902;7.626;2023-01-19T17:25:39;100081.44;;;1.83;100.00
26775;BME280;14362;51.902;7.626;2023-01-19T17:29:41;100085.84;;;1.84;100.00
26775;BME280;14362;51.902;7.626;2023-01-19T17:33:43;100094.06;;;1.84;100.00
26775;BME280;14362;51.902;7.626;2023-01-19T17:37:46;100096.81;;;1.84;100.00
26775;BME280;14362;51.902;7.626;2023-01-19T17:41:47;100105.34;;;1.87;100.00
26775;BME280;14362;51.902;7.626;2023-01-19T17:45:48;100109.19;;;1.86;100.00
26775;BME280;14362;51.902;7.626;2023-01-19T17:49:50;100107.25;;;1.87;100.00
26775;BME280;14362;51.902;7.626;2023-01-19T17:53:53;100116.06;;;1.84;100.00
26775;BME280;14362;51.902;7.626;2023-01-19T17:57:55;100118.25;;;1.82;100.00
26775;BME280;14362;51.902;7.626;2023-01-19T18:01:56;100121.59;;;1.79;100.00
26775;BME280;14362;51.902;7.626;2023-01-19T18:05:57;100126.25;;;1.83;100.00
26775;BME280;14362;51.902;7.626;2023-01-19T18:10:00;100132.28;;;1.85;100.00
26775;BME280;14362;51.902;7.626;2023-01-19T18:14:02;100136.94;;;1.85;100.00
26775;BME280;14362;51.902;7.626;2023-01-19T18:18:05;100119.91;;;1.83;100.00
26775;BME280;14362;51.902;7.626;2023-01-19T18:22:06;100131.19;;;1.81;100.00
26775;BME280;14362;51.902;7.626;2023-01-19T18:26:11;100140.81;;;1.79;100.00
26775;BME280;14362;51.902;7.626;2023-01-19T18:30:14;100140.00;;;1.78;100.00
26775;BME280;14362;51.902;7.626;2023-01-19T18:34:16;100134.25;;;1.75;100.00
26775;BME280;14362;51.902;7.626;2023-01-19T18:38:17;100143.28;;;1.75;100.00
26775;BME280;14362;51.902;7.626;2023-01-19T18:42:20;100138.66;;;1.71;100.00
26775;BME280;14362;51.902;7.626;2023-01-19T18:46:21;100144.72;;;1.63;100.00
26775;BME280;14362;51.902;7.626;2023-01-19T18:50:23;100154.66;;;1.54;100.00
26775;BME280;14362;51.902;7.626;2023-01-19T18:54:24;100147.78;;;1.51;100.00
26775;BME280;14362;51.902;7.626;2023-01-19T18:58:28;100157.09;;;1.60;100.00
26775;BME280;14362;51.902;7.626;2023-01-19T19:02:31;100160.66;;;1.61;100.00
26775;BME280;14362;51.902;7.626;2023-01-19T19:06:32;100163.13;;;1.67;100.00
26775;BME280;14362;51.902;7.626;2023-01-19T19:10:35;100162.03;;;1.68;100.00
26775;BME280;14362;51.902;7.626;2023-01-19T19:14:38;100158.19;;;1.69;100.00
26775;BME280;14362;51.902;7.626;2023-01-19T19:18:39;100165.28;;;1.70;100.00
26775;BME280;14362;51.902;7.626;2023-01-19T19:22:40;100175.47;;;1.70;100.00
26775;BME280;14362;51.902;7.626;2023-01-19T19:26:42;100172.47;;;1.66;100.00
26775;BME280;14362;51.902;7.626;2023-01-19T19:30:44;100174.91;;;1.68;100.00
26775;BME280;14362;51.902;7.626;2023-01-19T19:34:47;100170.25;;;1.68;100.00
26775;BME280;14362;51.902;7.626;2023-01-19T19:38:49;100180.94;;;1.70;100.00
26775;BME280;14362;51.902;7.626;2023-01-19T19:42:51;100193.88;;;1.69;100.00
26775;BME280;14362;51.902;7.626;2023-01-19T19:46:54;100201.56;;;1.67;100.00
26775;BME280;14362;51.902;7.626;2023-01-19T19:50:55;100198.53;;;1.69;100.00
26775;BME280;14362;51.902;7.626;2023-01-19T19:54:58;100196.63;;;1.69;100.00
26775;BME280;14362;51.902;7.626;2023-01-19T19:59:00;100191.69;;;1.66;100.00
26775;BME280;14362;51.902;7.626;2023-01-19T20:03:03;100198.53;;;1.64;100.00
26775;BME280;14362;51.902;7.626;2023-01-19T20:07:04;100198.28;;;1.65;100.00
26775;BME280;14362;51.902;7.626;2023-01-19T20:11:07;100199.94;;;1.61;100.00
26775;BME280;14362;51.902;7.626;2023-01-19T20:15:10;100202.69;;;1.61;100.00
26775;BME280;14362;51.902;7.626;2023-01-19T20:19:13;100196.09;;;1.57;100.00
26775;BME280;14362;51.902;7.626;2023-01-19T20:23:14;100205.44;;;1.56;100.00
26775;BME280;14362;51.902;7.626;2023-01-19T20:27:16;100202.97;;;1.50;100.00
26775;BME280;14362;51.902;7.626;2023-01-19T20:31:19;100209.56;;;1.49;100.00
26775;BME280;14362;51.902;7.626;2023-01-19T20:35:23;100218.06;;;1.52;100.00
26775;BME280;14362;51.902;7.626;2023-01-19T20:39:25;100226.03;;;1.54;100.00
26775;BME280;14362;51.902;7.626;2023-01-19T20:43:27;100241.97;;;1.57;100.00
26775;BME280;14362;51.902;7.626;2023-01-19T20:47:28;100238.94;;;1.58;100.00
26775;BME280;14362;51.902;7.626;2023-01-19T20:51:31;100240.03;;;1.57;100.00
26775;BME280;14362;51.902;7.626;2023-01-19T20:55:34;100249.13;;;1.53;100.00
26775;BME280;14362;51.902;7.626;2023-01-19T20:59:36;100256.50;;;1.52;100.00
26775;BME280;14362;51.902;7.626;2023-01-19T21:03:40;100251.03;;;1.52;100.00
26775;BME280;14362;51.902;7.626;2023-01-19T21:07:43;100261.75;;;1.54;100.00
26775;BME280;14362;51.902;7.626;2023-01-19T21:11:44;100259.25;;;1.57;100.00
26775;BME280;14362;51.902;7.626;2023-01-19T21:15:46;100264.50;;;1.49;100.00
26775;BME280;14362;51.902;7.626;2023-01-19T21:19:47;100271.09;;;1.48;100.00
26775;BME280;14362;51.902;7.626;2023-01-19T21:23:50;100276.84;;;1.41;100.00
26775;BME280;14362;51.902;7.626;2023-01-19T21:27:52;100282.34;;;1.41;100.00
26775;BME280;14362;51.902;7.626;2023-01-19T21:31:54;100280.41;;;1.42;100.00